sensor_id;sensor_type;location;lat;lon;timestamp;temperature;humidity
3727;DHT22;1879;45.876;12.300;2022-09-28T00:01:34;13.50;99.90
3727;DHT22;1879;45.876;12.300;2022-09-28T00:04:01;13.50;99.90
3727;DHT22;1879;45.876;12.300;2022-09-28T00:06:29;13.50;99.90
3727;DHT22;1879;45.876;12.300;2022-09-28T00:08:58;13.50;99.90
3727;DHT22;1879;45.876;12.300;2022-09-28T00:11:26;13.40;99.90
3727;DHT22;1879;45.876;12.300;2022-09-28T00:13:56;13.50;99.90
3727;DHT22;1879;45.876;12.300;2022-09-28T00:16:26;13.50;99.90
3727;DHT22;1879;45.876;12.300;2022-09-28T00:18:53;13.50;99.90
3727;DHT22;1879;45.876;12.300;2022-09-28T00:21:22;13.50;99.90
3727;DHT22;1879;45.876;12.300;2022-09-28T00:23:51;13.50;99.90
3727;DHT22;1879;45.876;12.300;2022-09-28T00:26:38;13.50;99.90
3727;DHT22;1879;45.876;12.300;2022-09-28T00:29:08;13.50;99.90
3727;DHT22;1879;45.876;12.300;2022-09-28T00:31:41;13.40;99.90
3727;DHT22;1879;45.876;12.300;2022-09-28T00:34:08;13.40;99.90
3727;DHT22;1879;45.876;12.300;2022-09-28T00:36:35;13.40;99.90
3727;DHT22;1879;45.876;12.300;2022-09-28T00:39:03;13.40;99.90
3727;DHT22;1879;45.876;12.300;2022-09-28T00:41:31;13.40;99.90
3727;DHT22;1879;45.876;12.300;2022-09-28T00:49:53;13.40;99.90
3727;DHT22;1879;45.876;12.300;2022-09-28T00:52:27;13.50;99.90
3727;DHT22;1879;45.876;12.300;2022-09-28T00:54:57;13.50;99.90
3727;DHT22;1879;45.876;12.300;2022-09-28T00:57:26;13.40;99.90
3727;DHT22;1879;45.876;12.300;2022-09-28T00:59:54;13.40;99.90
3727;DHT22;1879;45.876;12.300;2022-09-28T01:02:23;13.30;99.90
3727;DHT22;1879;45.876;12.300;2022-09-28T01:04:50;13.30;99.90
3727;DHT22;1879;45.876;12.300;2022-09-28T01:07:18;13.30;99.90
3727;DHT22;1879;45.876;12.300;2022-09-28T01:09:47;13.30;99.90
3727;DHT22;1879;45.876;12.300;2022-09-28T01:12:14;13.40;99.90
3727;DHT22;1879;45.876;12.300;2022-09-28T01:14:42;13.40;99.90
3727;DHT22;1879;45.876;12.300;2022-09-28T01:17:13;13.40;99.90
3727;DHT22;1879;45.876;12.300;2022-09-28T01:20:03;13.40;99.90
3727;DHT22;1879;45.876;12.300;2022-09-28T01:25:34;13.40;99.90
3727;DHT22;1879;45.876;12.300;2022-09-28T01:28:10;13.40;99.90
3727;DHT22;1879;45.876;12.300;2022-09-28T01:30:42;13.40;99.90
3727;DHT22;1879;45.876;12.300;2022-09-28T01:33:15;13.40;99.90
3727;DHT22;1879;45.876;12.300;2022-09-28T01:35:50;13.40;99.90
3727;DHT22;1879;45.876;12.300;2022-09-28T01:38:20;13.30;99.90
3727;DHT22;1879;45.876;12.300;2022-09-28T01:40:49;13.30;99.90
3727;DHT22;1879;45.876;12.300;2022-09-28T01:43:21;13.40;99.90
3727;DHT22;1879;45.876;12.300;2022-09-28T01:45:52;13.40;99.90
3727;DHT22;1879;45.876;12.300;2022-09-28T01:48:23;13.50;99.90
3727;DHT22;1879;45.876;12.300;2022-09-28T01:50:56;13.50;99.90
3727;DHT22;1879;45.876;12.300;2022-09-28T01:53:27;13.60;99.90
3727;DHT22;1879;45.876;12.300;2022-09-28T01:56:00;13.70;99.90
3727;DHT22;1879;45.876;12.300;2022-09-28T01:58:35;13.70;99.90
3727;DHT22;1879;45.876;12.300;2022-09-28T02:01:07;13.70;99.90
3727;DHT22;1879;45.876;12.300;2022-09-28T02:03:38;13.70;99.90
3727;DHT22;1879;45.876;12.300;2022-09-28T02:06:11;13.70;99.90
3727;DHT22;1879;45.876;12.300;2022-09-28T02:08:42;13.70;99.90
3727;DHT22;1879;45.876;12.300;2022-09-28T02:11:14;13.70;99.90
3727;DHT22;1879;45.876;12.300;2022-09-28T02:13:46;13.70;99.90
3727;DHT22;1879;45.876;12.300;2022-09-28T02:16:17;13.70;99.90
3727;DHT22;1879;45.876;12.300;2022-09-28T02:18:46;13.70;99.90
3727;DHT22;1879;45.876;12.300;2022-09-28T02:21:16;13.80;99.90
3727;DHT22;1879;45.876;12.300;2022-09-28T02:24:00;13.80;99.90
3727;DHT22;1879;45.876;12.300;2022-09-28T02:26:31;13.70;99.90
3727;DHT22;1879;45.876;12.300;2022-09-28T02:29:02;13.70;99.90
3727;DHT22;1879;45.876;12.300;2022-09-28T02:31:30;13.70;99.90
3727;DHT22;1879;45.876;12.300;2022-09-28T02:33:58;13.60;99.90
3727;DHT22;1879;45.876;12.300;2022-09-28T02:36:25;13.60;99.90
3727;DHT22;1879;45.876;12.300;2022-09-28T02:38:53;13.50;99.90
3727;DHT22;1879;45.876;12.300;2022-09-28T02:41:30;13.50;99.90
3727;DHT22;1879;45.876;12.300;2022-09-28T02:44:11;13.60;99.90
3727;DHT22;1879;45.876;12.300;2022-09-28T02:46:47;13.60;99.90
3727;DHT22;1879;45.876;12.300;2022-09-28T02:49:24;13.60;99.90
3727;DHT22;1879;45.876;12.300;2022-09-28T02:52:13;13.60;99.90
3727;DHT22;1879;45.876;12.300;2022-09-28T02:55:05;13.60;99.90
3727;DHT22;1879;45.876;12.300;2022-09-28T02:57:52;13.60;99.90
3727;DHT22;1879;45.876;12.300;2022-09-28T03:00:23;13.60;99.90
3727;DHT22;1879;45.876;12.300;2022-09-28T03:02:58;13.50;99.90
3727;DHT22;1879;45.876;12.300;2022-09-28T03:05:31;13.50;99.90
3727;DHT22;1879;45.876;12.300;2022-09-28T03:08:02;13.50;99.90
3727;DHT22;1879;45.876;12.300;2022-09-28T03:10:36;13.40;99.90
3727;DHT22;1879;45.876;12.300;2022-09-28T03:13:05;13.40;99.90
3727;DHT22;1879;45.876;12.300;2022-09-28T03:15:35;13.40;99.90
3727;DHT22;1879;45.876;12.300;2022-09-28T03:18:03;13.40;99.90
3727;DHT22;1879;45.876;12.300;2022-09-28T03:20:31;13.50;99.90
3727;DHT22;1879;45.876;12.300;2022-09-28T03:22:58;13.50;99.90
3727;DHT22;1879;45.876;12.300;2022-09-28T03:25:25;13.50;99.90
3727;DHT22;1879;45.876;12.300;2022-09-28T03:27:53;13.60;99.90
3727;DHT22;1879;45.876;12.300;2022-09-28T03:30:19;13.60;99.90
3727;DHT22;1879;45.876;12.300;2022-09-28T03:32:55;13.60;99.90
3727;DHT22;1879;45.876;12.300;2022-09-28T03:35:23;13.60;99.90
3727;DHT22;1879;45.876;12.300;2022-09-28T03:37:53;13.50;99.90
3727;DHT22;1879;45.876;12.300;2022-09-28T03:40:20;13.60;99.90
3727;DHT22;1879;45.876;12.300;2022-09-28T03:42:47;13.60;99.90
3727;DHT22;1879;45.876;12.300;2022-09-28T03:45:14;13.60;99.90
3727;DHT22;1879;45.876;12.300;2022-09-28T03:47:44;13.70;99.90
3727;DHT22;1879;45.876;12.300;2022-09-28T03:50:14;13.70;99.90
3727;DHT22;1879;45.876;12.300;2022-09-28T03:52:41;13.60;99.90
3727;DHT22;1879;45.876;12.300;2022-09-28T03:55:08;13.60;99.90
3727;DHT22;1879;45.876;12.300;2022-09-28T03:57:35;13.50;99.90
3727;DHT22;1879;45.876;12.300;2022-09-28T04:00:03;13.50;99.90
3727;DHT22;1879;45.876;12.300;2022-09-28T04:02:30;13.60;99.90
3727;DHT22;1879;45.876;12.300;2022-09-28T04:04:57;13.60;99.90
3727;DHT22;1879;45.876;12.300;2022-09-28T04:07:25;13.60;99.90
3727;DHT22;1879;45.876;12.300;2022-09-28T04:09:52;13.70;99.90
3727;DHT22;1879;45.876;12.300;2022-09-28T04:12:19;13.70;99.90
3727;DHT22;1879;45.876;12.300;2022-09-28T04:14:46;13.70;99.90
3727;DHT22;1879;45.876;12.300;2022-09-28T04:17:13;13.70;99.90
3727;DHT22;1879;45.876;12.300;2022-09-28T04:19:40;13.60;99.90
3727;DHT22;1879;45.876;12.300;2022-09-28T04:22:10;13.60;99.90
3727;DHT22;1879;45.876;12.300;2022-09-28T04:24:38;13.60;99.90
3727;DHT22;1879;45.876;12.300;2022-09-28T04:27:08;13.50;99.90
3727;DHT22;1879;45.876;12.300;2022-09-28T04:29:52;13.50;99.90
3727;DHT22;1879;45.876;12.300;2022-09-28T04:32:19;13.50;99.90
3727;DHT22;1879;45.876;12.300;2022-09-28T04:34:46;13.50;99.90
3727;DHT22;1879;45.876;12.300;2022-09-28T04:37:13;13.50;99.90
3727;DHT22;1879;45.876;12.300;2022-09-28T04:39:42;13.50;99.90
3727;DHT22;1879;45.876;12.300;2022-09-28T04:42:09;13.50;99.90
3727;DHT22;1879;45.876;12.300;2022-09-28T04:44:36;13.40;99.90
3727;DHT22;1879;45.876;12.300;2022-09-28T04:47:03;13.40;99.90
3727;DHT22;1879;45.876;12.300;2022-09-28T04:49:30;13.40;99.90
3727;DHT22;1879;45.876;12.300;2022-09-28T04:51:56;13.40;99.90
3727;DHT22;1879;45.876;12.300;2022-09-28T04:54:23;13.50;99.90
3727;DHT22;1879;45.876;12.300;2022-09-28T04:56:52;13.50;99.90
3727;DHT22;1879;45.876;12.300;2022-09-28T04:59:20;13.60;99.90
3727;DHT22;1879;45.876;12.300;2022-09-28T05:01:47;13.70;99.90
3727;DHT22;1879;45.876;12.300;2022-09-28T05:04:14;13.70;99.90
3727;DHT22;1879;45.876;12.300;2022-09-28T05:06:41;13.70;99.90
3727;DHT22;1879;45.876;12.300;2022-09-28T05:09:08;13.70;99.90
3727;DHT22;1879;45.876;12.300;2022-09-28T05:11:35;13.70;99.90
3727;DHT22;1879;45.876;12.300;2022-09-28T05:14:03;13.70;99.90
3727;DHT22;1879;45.876;12.300;2022-09-28T05:16:31;13.70;99.90
3727;DHT22;1879;45.876;12.300;2022-09-28T05:18:59;13.70;99.90
3727;DHT22;1879;45.876;12.300;2022-09-28T05:21:25;13.60;99.90
3727;DHT22;1879;45.876;12.300;2022-09-28T05:23:53;13.60;99.90
3727;DHT22;1879;45.876;12.300;2022-09-28T05:26:23;13.50;99.90
3727;DHT22;1879;45.876;12.300;2022-09-28T05:28:50;13.60;99.90
3727;DHT22;1879;45.876;12.300;2022-09-28T05:31:18;13.60;99.90
3727;DHT22;1879;45.876;12.300;2022-09-28T05:33:45;13.60;99.90
3727;DHT22;1879;45.876;12.300;2022-09-28T05:36:12;13.60;99.90
3727;DHT22;1879;45.876;12.300;2022-09-28T05:38:39;13.70;99.90
3727;DHT22;1879;45.876;12.300;2022-09-28T05:41:06;13.70;99.90
3727;DHT22;1879;45.876;12.300;2022-09-28T05:43:33;13.70;99.90
3727;DHT22;1879;45.876;12.300;2022-09-28T05:46:00;13.80;99.90
3727;DHT22;1879;45.876;12.300;2022-09-28T05:48:29;13.90;99.90
3727;DHT22;1879;45.876;12.300;2022-09-28T05:50:56;14.00;99.90
3727;DHT22;1879;45.876;12.300;2022-09-28T05:53:24;14.00;99.90
3727;DHT22;1879;45.876;12.300;2022-09-28T05:55:51;14.10;99.90
3727;DHT22;1879;45.876;12.300;2022-09-28T05:58:18;14.30;99.90
3727;DHT22;1879;45.876;12.300;2022-09-28T06:00:45;14.40;99.90
3727;DHT22;1879;45.876;12.300;2022-09-28T06:03:13;14.50;99.90
3727;DHT22;1879;45.876;12.300;2022-09-28T06:05:41;14.50;99.90
3727;DHT22;1879;45.876;12.300;2022-09-28T06:08:09;14.50;99.90
3727;DHT22;1879;45.876;12.300;2022-09-28T06:10:36;14.50;99.90
3727;DHT22;1879;45.876;12.300;2022-09-28T06:13:03;14.60;99.90
3727;DHT22;1879;45.876;12.300;2022-09-28T06:15:32;14.60;99.90
3727;DHT22;1879;45.876;12.300;2022-09-28T06:18:01;14.70;99.90
3727;DHT22;1879;45.876;12.300;2022-09-28T06:20:29;14.70;99.90
3727;DHT22;1879;45.876;12.300;2022-09-28T06:22:58;14.80;99.90
3727;DHT22;1879;45.876;12.300;2022-09-28T06:25:25;14.80;99.90
3727;DHT22;1879;45.876;12.300;2022-09-28T06:27:54;14.90;99.90
3727;DHT22;1879;45.876;12.300;2022-09-28T06:30:21;14.90;99.90
3727;DHT22;1879;45.876;12.300;2022-09-28T06:32:52;14.90;99.90
3727;DHT22;1879;45.876;12.300;2022-09-28T06:35:21;15.00;99.90
3727;DHT22;1879;45.876;12.300;2022-09-28T06:37:49;15.10;99.90
3727;DHT22;1879;45.876;12.300;2022-09-28T06:40:18;15.30;99.90
3727;DHT22;1879;45.876;12.300;2022-09-28T06:42:54;15.50;99.90
3727;DHT22;1879;45.876;12.300;2022-09-28T06:45:21;15.60;99.90
3727;DHT22;1879;45.876;12.300;2022-09-28T06:47:52;15.80;99.90
3727;DHT22;1879;45.876;12.300;2022-09-28T06:50:21;15.90;99.90
3727;DHT22;1879;45.876;12.300;2022-09-28T06:52:50;16.10;99.90
3727;DHT22;1879;45.876;12.300;2022-09-28T06:55:18;16.20;99.90
3727;DHT22;1879;45.876;12.300;2022-09-28T06:57:46;16.20;99.90
3727;DHT22;1879;45.876;12.300;2022-09-28T07:00:16;16.30;99.90
3727;DHT22;1879;45.876;12.300;2022-09-28T07:02:43;16.40;99.90
3727;DHT22;1879;45.876;12.300;2022-09-28T07:05:11;16.40;99.90
3727;DHT22;1879;45.876;12.300;2022-09-28T07:07:39;16.30;99.90
3727;DHT22;1879;45.876;12.300;2022-09-28T07:10:10;16.10;99.90
3727;DHT22;1879;45.876;12.300;2022-09-28T07:12:38;16.00;99.90
3727;DHT22;1879;45.876;12.300;2022-09-28T07:15:06;15.90;99.90
3727;DHT22;1879;45.876;12.300;2022-09-28T07:17:33;15.80;99.90
3727;DHT22;1879;45.876;12.300;2022-09-28T07:20:01;15.80;99.90
3727;DHT22;1879;45.876;12.300;2022-09-28T07:22:29;15.80;99.90
3727;DHT22;1879;45.876;12.300;2022-09-28T07:24:56;15.80;99.90
3727;DHT22;1879;45.876;12.300;2022-09-28T07:27:23;15.80;99.90
3727;DHT22;1879;45.876;12.300;2022-09-28T07:29:52;15.70;99.90
3727;DHT22;1879;45.876;12.300;2022-09-28T07:32:19;15.70;99.90
3727;DHT22;1879;45.876;12.300;2022-09-28T07:34:46;15.70;99.90
3727;DHT22;1879;45.876;12.300;2022-09-28T07:37:14;15.70;99.90
3727;DHT22;1879;45.876;12.300;2022-09-28T07:39:43;15.80;99.90
3727;DHT22;1879;45.876;12.300;2022-09-28T07:42:27;15.90;99.90
3727;DHT22;1879;45.876;12.300;2022-09-28T07:44:56;16.10;99.90
3727;DHT22;1879;45.876;12.300;2022-09-28T07:47:23;16.10;99.90
3727;DHT22;1879;45.876;12.300;2022-09-28T07:49:52;16.00;99.90
3727;DHT22;1879;45.876;12.300;2022-09-28T07:52:23;16.00;99.90
3727;DHT22;1879;45.876;12.300;2022-09-28T07:54:53;16.00;99.90
3727;DHT22;1879;45.876;12.300;2022-09-28T07:57:21;16.00;99.90
3727;DHT22;1879;45.876;12.300;2022-09-28T07:59:48;16.10;99.90
3727;DHT22;1879;45.876;12.300;2022-09-28T08:02:16;16.20;99.90
3727;DHT22;1879;45.876;12.300;2022-09-28T08:04:44;16.20;99.90
3727;DHT22;1879;45.876;12.300;2022-09-28T08:07:12;16.30;99.90
3727;DHT22;1879;45.876;12.300;2022-09-28T08:09:40;16.30;99.90
3727;DHT22;1879;45.876;12.300;2022-09-28T08:12:08;16.30;99.90
3727;DHT22;1879;45.876;12.300;2022-09-28T08:14:35;16.40;99.90
3727;DHT22;1879;45.876;12.300;2022-09-28T08:17:02;16.50;99.90
3727;DHT22;1879;45.876;12.300;2022-09-28T08:19:31;16.50;99.90
3727;DHT22;1879;45.876;12.300;2022-09-28T08:22:12;16.60;99.90
3727;DHT22;1879;45.876;12.300;2022-09-28T08:24:40;16.70;99.90
3727;DHT22;1879;45.876;12.300;2022-09-28T08:27:07;16.80;99.90
3727;DHT22;1879;45.876;12.300;2022-09-28T08:29:35;16.90;99.90
3727;DHT22;1879;45.876;12.300;2022-09-28T08:32:02;17.10;99.90
3727;DHT22;1879;45.876;12.300;2022-09-28T08:34:30;17.20;99.90
3727;DHT22;1879;45.876;12.300;2022-09-28T08:36:57;17.30;99.90
3727;DHT22;1879;45.876;12.300;2022-09-28T08:39:24;17.40;99.90
3727;DHT22;1879;45.876;12.300;2022-09-28T08:42:01;17.50;99.90
3727;DHT22;1879;45.876;12.300;2022-09-28T08:44:36;17.50;99.90
3727;DHT22;1879;45.876;12.300;2022-09-28T08:47:09;17.60;99.90
3727;DHT22;1879;45.876;12.300;2022-09-28T08:50:01;17.60;99.90
3727;DHT22;1879;45.876;12.300;2022-09-28T08:52:32;17.70;99.90
3727;DHT22;1879;45.876;12.300;2022-09-28T08:55:04;17.90;99.90
3727;DHT22;1879;45.876;12.300;2022-09-28T08:57:38;18.00;99.90
3727;DHT22;1879;45.876;12.300;2022-09-28T09:00:15;18.00;99.90
3727;DHT22;1879;45.876;12.300;2022-09-28T09:02:46;18.10;99.90
3727;DHT22;1879;45.876;12.300;2022-09-28T09:05:17;18.20;99.90
3727;DHT22;1879;45.876;12.300;2022-09-28T09:08:02;18.20;99.90
3727;DHT22;1879;45.876;12.300;2022-09-28T09:10:42;18.30;99.90
3727;DHT22;1879;45.876;12.300;2022-09-28T09:13:27;18.30;99.90
3727;DHT22;1879;45.876;12.300;2022-09-28T09:16:05;18.40;99.90
3727;DHT22;1879;45.876;12.300;2022-09-28T09:18:36;18.50;99.90
3727;DHT22;1879;45.876;12.300;2022-09-28T09:21:12;18.50;99.90
3727;DHT22;1879;45.876;12.300;2022-09-28T09:23:48;18.60;99.90
3727;DHT22;1879;45.876;12.300;2022-09-28T09:26:20;18.70;99.90
3727;DHT22;1879;45.876;12.300;2022-09-28T09:32:08;18.70;99.90
3727;DHT22;1879;45.876;12.300;2022-09-28T09:35:12;18.80;99.90
3727;DHT22;1879;45.876;12.300;2022-09-28T09:38:01;18.80;99.90
3727;DHT22;1879;45.876;12.300;2022-09-28T09:40:43;19.00;99.90
3727;DHT22;1879;45.876;12.300;2022-09-28T09:43:33;19.00;99.90
3727;DHT22;1879;45.876;12.300;2022-09-28T09:46:11;19.00;99.90
3727;DHT22;1879;45.876;12.300;2022-09-28T09:48:46;19.00;99.90
3727;DHT22;1879;45.876;12.300;2022-09-28T09:51:21;19.10;99.90
3727;DHT22;1879;45.876;12.300;2022-09-28T09:53:54;19.20;99.90
3727;DHT22;1879;45.876;12.300;2022-09-28T09:56:30;19.20;99.90
3727;DHT22;1879;45.876;12.300;2022-09-28T09:59:02;19.30;99.90
3727;DHT22;1879;45.876;12.300;2022-09-28T10:01:34;19.30;99.90
3727;DHT22;1879;45.876;12.300;2022-09-28T10:04:06;19.30;99.90
3727;DHT22;1879;45.876;12.300;2022-09-28T10:06:40;19.30;99.90
3727;DHT22;1879;45.876;12.300;2022-09-28T10:09:14;19.30;99.90
3727;DHT22;1879;45.876;12.300;2022-09-28T10:11:44;19.20;99.90
3727;DHT22;1879;45.876;12.300;2022-09-28T10:14:15;19.10;99.90
3727;DHT22;1879;45.876;12.300;2022-09-28T10:16:45;19.10;99.90
3727;DHT22;1879;45.876;12.300;2022-09-28T10:19:13;19.10;99.90
3727;DHT22;1879;45.876;12.300;2022-09-28T10:21:42;19.10;99.90
3727;DHT22;1879;45.876;12.300;2022-09-28T10:24:17;19.20;99.90
3727;DHT22;1879;45.876;12.300;2022-09-28T10:26:49;19.20;99.90
3727;DHT22;1879;45.876;12.300;2022-09-28T10:29:20;19.20;99.90
3727;DHT22;1879;45.876;12.300;2022-09-28T10:31:49;19.30;99.90
3727;DHT22;1879;45.876;12.300;2022-09-28T10:34:24;19.30;99.90
3727;DHT22;1879;45.876;12.300;2022-09-28T10:36:55;19.30;99.90
3727;DHT22;1879;45.876;12.300;2022-09-28T10:39:31;19.40;99.90
3727;DHT22;1879;45.876;12.300;2022-09-28T10:42:00;19.60;99.90
3727;DHT22;1879;45.876;12.300;2022-09-28T10:44:30;19.70;99.90
3727;DHT22;1879;45.876;12.300;2022-09-28T10:46:59;19.80;99.60
3727;DHT22;1879;45.876;12.300;2022-09-28T10:49:27;20.10;99.90
3727;DHT22;1879;45.876;12.300;2022-09-28T10:51:55;20.30;98.60
3727;DHT22;1879;45.876;12.300;2022-09-28T10:54:24;20.50;96.90
3727;DHT22;1879;45.876;12.300;2022-09-28T10:56:54;20.50;96.30
3727;DHT22;1879;45.876;12.300;2022-09-28T10:59:24;20.80;97.20
3727;DHT22;1879;45.876;12.300;2022-09-28T11:02:02;20.90;96.50
3727;DHT22;1879;45.876;12.300;2022-09-28T11:04:37;21.20;96.90
3727;DHT22;1879;45.876;12.300;2022-09-28T11:07:14;21.10;95.60
3727;DHT22;1879;45.876;12.300;2022-09-28T11:09:46;21.00;95.40
3727;DHT22;1879;45.876;12.300;2022-09-28T11:12:18;20.90;95.10
3727;DHT22;1879;45.876;12.300;2022-09-28T11:14:47;21.00;95.20
3727;DHT22;1879;45.876;12.300;2022-09-28T11:17:25;21.10;95.50
3727;DHT22;1879;45.876;12.300;2022-09-28T11:19:53;21.10;94.70
3727;DHT22;1879;45.876;12.300;2022-09-28T11:22:26;21.30;94.70
3727;DHT22;1879;45.876;12.300;2022-09-28T11:25:19;21.70;94.40
3727;DHT22;1879;45.876;12.300;2022-09-28T11:27:58;22.50;93.50
3727;DHT22;1879;45.876;12.300;2022-09-28T11:30:28;22.90;92.90
3727;DHT22;1879;45.876;12.300;2022-09-28T11:33:02;23.90;92.30
3727;DHT22;1879;45.876;12.300;2022-09-28T11:35:43;24.90;90.70
3727;DHT22;1879;45.876;12.300;2022-09-28T11:38:26;25.40;89.70
3727;DHT22;1879;45.876;12.300;2022-09-28T11:41:02;25.40;86.10
3727;DHT22;1879;45.876;12.300;2022-09-28T11:43:49;25.50;84.50
3727;DHT22;1879;45.876;12.300;2022-09-28T11:46:24;25.40;82.80
3727;DHT22;1879;45.876;12.300;2022-09-28T11:48:58;25.50;80.80
3727;DHT22;1879;45.876;12.300;2022-09-28T11:51:30;27.80;75.60
3727;DHT22;1879;45.876;12.300;2022-09-28T11:54:02;27.80;76.40
3727;DHT22;1879;45.876;12.300;2022-09-28T11:56:41;27.60;73.20
3727;DHT22;1879;45.876;12.300;2022-09-28T11:59:14;26.40;72.60
3727;DHT22;1879;45.876;12.300;2022-09-28T12:01:47;25.60;75.90
3727;DHT22;1879;45.876;12.300;2022-09-28T12:04:20;25.00;77.10
3727;DHT22;1879;45.876;12.300;2022-09-28T12:06:50;24.40;77.70
3727;DHT22;1879;45.876;12.300;2022-09-28T12:09:27;23.90;78.90
3727;DHT22;1879;45.876;12.300;2022-09-28T12:11:59;23.50;79.90
3727;DHT22;1879;45.876;12.300;2022-09-28T12:14:33;23.10;80.00
3727;DHT22;1879;45.876;12.300;2022-09-28T12:17:06;23.00;80.80
3727;DHT22;1879;45.876;12.300;2022-09-28T12:19:37;22.70;81.60
3727;DHT22;1879;45.876;12.300;2022-09-28T12:22:14;22.40;82.50
3727;DHT22;1879;45.876;12.300;2022-09-28T12:24:45;22.20;84.30
3727;DHT22;1879;45.876;12.300;2022-09-28T12:27:16;22.00;84.10
3727;DHT22;1879;45.876;12.300;2022-09-28T12:29:53;21.70;84.00
3727;DHT22;1879;45.876;12.300;2022-09-28T12:32:28;21.60;85.10
3727;DHT22;1879;45.876;12.300;2022-09-28T12:34:56;21.30;85.50
3727;DHT22;1879;45.876;12.300;2022-09-28T12:37:37;21.30;87.70
3727;DHT22;1879;45.876;12.300;2022-09-28T12:40:29;21.50;88.00
3727;DHT22;1879;45.876;12.300;2022-09-28T12:46:18;22.60;85.00
3727;DHT22;1879;45.876;12.300;2022-09-28T12:49:10;22.70;85.40
3727;DHT22;1879;45.876;12.300;2022-09-28T12:51:46;22.60;85.70
3727;DHT22;1879;45.876;12.300;2022-09-28T12:54:37;22.30;86.30
3727;DHT22;1879;45.876;12.300;2022-09-28T12:57:31;22.00;87.50
3727;DHT22;1879;45.876;12.300;2022-09-28T13:00:04;21.80;88.20
3727;DHT22;1879;45.876;12.300;2022-09-28T13:08:59;21.50;88.80
3727;DHT22;1879;45.876;12.300;2022-09-28T13:11:32;21.50;90.40
3727;DHT22;1879;45.876;12.300;2022-09-28T13:14:31;21.60;91.10
3727;DHT22;1879;45.876;12.300;2022-09-28T13:17:05;21.70;90.90
3727;DHT22;1879;45.876;12.300;2022-09-28T13:19:40;21.90;90.80
3727;DHT22;1879;45.876;12.300;2022-09-28T13:22:20;22.20;91.10
3727;DHT22;1879;45.876;12.300;2022-09-28T13:24:50;22.50;90.20
3727;DHT22;1879;45.876;12.300;2022-09-28T13:27:24;22.70;90.10
3727;DHT22;1879;45.876;12.300;2022-09-28T13:29:52;22.80;90.30
3727;DHT22;1879;45.876;12.300;2022-09-28T13:32:20;23.10;90.00
3727;DHT22;1879;45.876;12.300;2022-09-28T13:34:49;23.00;88.50
3727;DHT22;1879;45.876;12.300;2022-09-28T13:37:21;23.00;89.60
3727;DHT22;1879;45.876;12.300;2022-09-28T13:39:52;22.90;90.10
3727;DHT22;1879;45.876;12.300;2022-09-28T13:42:49;22.70;90.10
3727;DHT22;1879;45.876;12.300;2022-09-28T13:48:20;22.20;90.50
3727;DHT22;1879;45.876;12.300;2022-09-28T13:51:18;22.00;91.40
3727;DHT22;1879;45.876;12.300;2022-09-28T13:54:08;21.90;91.40
3727;DHT22;1879;45.876;12.300;2022-09-28T13:56:46;21.70;91.80
3727;DHT22;1879;45.876;12.300;2022-09-28T13:59:20;21.60;92.30
3727;DHT22;1879;45.876;12.300;2022-09-28T14:01:52;21.50;92.70
3727;DHT22;1879;45.876;12.300;2022-09-28T14:04:22;21.30;92.70
3727;DHT22;1879;45.876;12.300;2022-09-28T14:06:53;21.20;93.20
3727;DHT22;1879;45.876;12.300;2022-09-28T14:09:40;21.10;95.80
3727;DHT22;1879;45.876;12.300;2022-09-28T14:12:27;21.20;98.30
3727;DHT22;1879;45.876;12.300;2022-09-28T14:14:55;21.30;97.20
3727;DHT22;1879;45.876;12.300;2022-09-28T14:17:48;21.30;96.20
3727;DHT22;1879;45.876;12.300;2022-09-28T14:20:21;21.20;96.70
3727;DHT22;1879;45.876;12.300;2022-09-28T14:23:26;21.10;96.80
3727;DHT22;1879;45.876;12.300;2022-09-28T14:26:13;21.00;97.00
3727;DHT22;1879;45.876;12.300;2022-09-28T14:28:55;20.80;97.60
3727;DHT22;1879;45.876;12.300;2022-09-28T14:31:29;20.70;98.70
3727;DHT22;1879;45.876;12.300;2022-09-28T14:33:58;20.60;98.20
3727;DHT22;1879;45.876;12.300;2022-09-28T14:36:35;20.50;99.10
3727;DHT22;1879;45.876;12.300;2022-09-28T14:39:33;20.40;98.90
3727;DHT22;1879;45.876;12.300;2022-09-28T14:42:22;20.40;99.90
3727;DHT22;1879;45.876;12.300;2022-09-28T14:45:29;20.40;99.90
3727;DHT22;1879;45.876;12.300;2022-09-28T14:48:13;20.20;99.90
3727;DHT22;1879;45.876;12.300;2022-09-28T14:50:41;20.10;99.90
3727;DHT22;1879;45.876;12.300;2022-09-28T14:53:12;20.10;99.90
3727;DHT22;1879;45.876;12.300;2022-09-28T14:55:49;20.10;99.90
3727;DHT22;1879;45.876;12.300;2022-09-28T14:58:19;20.10;99.90
3727;DHT22;1879;45.876;12.300;2022-09-28T15:00:53;20.00;99.90
3727;DHT22;1879;45.876;12.300;2022-09-28T15:03:22;20.00;99.90
3727;DHT22;1879;45.876;12.300;2022-09-28T15:05:49;20.00;99.90
3727;DHT22;1879;45.876;12.300;2022-09-28T15:11:39;20.00;99.90
3727;DHT22;1879;45.876;12.300;2022-09-28T15:14:06;19.90;99.90
3727;DHT22;1879;45.876;12.300;2022-09-28T15:16:36;19.90;99.90
3727;DHT22;1879;45.876;12.300;2022-09-28T15:19:14;19.90;99.90
3727;DHT22;1879;45.876;12.300;2022-09-28T15:21:47;19.90;99.90
3727;DHT22;1879;45.876;12.300;2022-09-28T15:24:26;19.90;99.90
3727;DHT22;1879;45.876;12.300;2022-09-28T15:26:56;19.80;99.90
3727;DHT22;1879;45.876;12.300;2022-09-28T15:29:23;19.80;99.90
3727;DHT22;1879;45.876;12.300;2022-09-28T15:31:54;19.70;99.90
3727;DHT22;1879;45.876;12.300;2022-09-28T15:34:28;19.70;99.90
3727;DHT22;1879;45.876;12.300;2022-09-28T15:37:16;19.80;99.90
3727;DHT22;1879;45.876;12.300;2022-09-28T15:39:45;19.70;99.90
3727;DHT22;1879;45.876;12.300;2022-09-28T15:42:14;19.70;99.90
3727;DHT22;1879;45.876;12.300;2022-09-28T15:44:42;19.70;99.90
3727;DHT22;1879;45.876;12.300;2022-09-28T15:47:27;19.70;99.90
3727;DHT22;1879;45.876;12.300;2022-09-28T15:49:59;19.60;99.90
3727;DHT22;1879;45.876;12.300;2022-09-28T15:52:31;19.60;99.90
3727;DHT22;1879;45.876;12.300;2022-09-28T15:55:01;19.50;99.90
3727;DHT22;1879;45.876;12.300;2022-09-28T15:57:36;19.40;99.90
3727;DHT22;1879;45.876;12.300;2022-09-28T16:00:05;19.40;99.90
3727;DHT22;1879;45.876;12.300;2022-09-28T16:02:34;19.40;99.90
3727;DHT22;1879;45.876;12.300;2022-09-28T16:05:01;19.40;99.90
3727;DHT22;1879;45.876;12.300;2022-09-28T16:07:35;19.40;99.90
3727;DHT22;1879;45.876;12.300;2022-09-28T16:10:29;19.30;99.90
3727;DHT22;1879;45.876;12.300;2022-09-28T16:13:07;19.30;99.90
3727;DHT22;1879;45.876;12.300;2022-09-28T16:15:37;19.20;99.90
3727;DHT22;1879;45.876;12.300;2022-09-28T16:18:15;19.20;99.90
3727;DHT22;1879;45.876;12.300;2022-09-28T16:20:46;19.10;99.90
3727;DHT22;1879;45.876;12.300;2022-09-28T16:23:19;19.10;99.90
3727;DHT22;1879;45.876;12.300;2022-09-28T16:25:49;19.10;99.90
3727;DHT22;1879;45.876;12.300;2022-09-28T16:28:48;19.10;99.90
3727;DHT22;1879;45.876;12.300;2022-09-28T16:31:25;19.10;99.90
3727;DHT22;1879;45.876;12.300;2022-09-28T16:33:55;19.10;99.90
3727;DHT22;1879;45.876;12.300;2022-09-28T16:36:25;19.10;99.90
3727;DHT22;1879;45.876;12.300;2022-09-28T16:38:54;19.00;99.90
3727;DHT22;1879;45.876;12.300;2022-09-28T16:41:23;19.00;99.90
3727;DHT22;1879;45.876;12.300;2022-09-28T16:43:55;18.90;99.90
3727;DHT22;1879;45.876;12.300;2022-09-28T16:46:29;18.90;99.90